sensor_id;sensor_type;location;lat;lon;timestamp;P1;durP1;ratioP1;P2;durP2;ratioP2
20621;SDS011;10470;42.670;23.354;2024-01-27T00:00:12;8.53;;;2.70;;
20621;SDS011;10470;42.670;23.354;2024-01-27T00:02:39;6.67;;;2.63;;
20621;SDS011;10470;42.670;23.354;2024-01-27T00:05:04;5.13;;;2.90;;
20621;SDS011;10470;42.670;23.354;2024-01-27T00:07:30;6.47;;;2.73;;
20621;SDS011;10470;42.670;23.354;2024-01-27T00:09:55;6.80;;;2.90;;
20621;SDS011;10470;42.670;23.354;2024-01-27T00:12:21;9.40;;;3.50;;
20621;SDS011;10470;42.670;23.354;2024-01-27T00:14:46;6.17;;;2.50;;
20621;SDS011;10470;42.670;23.354;2024-01-27T00:17:11;7.70;;;3.07;;
20621;SDS011;10470;42.670;23.354;2024-01-27T00:19:37;4.67;;;2.60;;
20621;SDS011;10470;42.670;23.354;2024-01-27T00:22:02;6.57;;;2.60;;
20621;SDS011;10470;42.670;23.354;2024-01-27T00:24:27;6.40;;;2.77;;
20621;SDS011;10470;42.670;23.354;2024-01-27T00:26:53;4.57;;;2.73;;
20621;SDS011;10470;42.670;23.354;2024-01-27T00:29:18;6.83;;;3.00;;
20621;SDS011;10470;42.670;23.354;2024-01-27T00:31:44;7.77;;;3.20;;
20621;SDS011;10470;42.670;23.354;2024-01-27T00:34:09;7.40;;;3.30;;
20621;SDS011;10470;42.670;23.354;2024-01-27T00:36:35;6.20;;;2.80;;
20621;SDS011;10470;42.670;23.354;2024-01-27T00:39:06;6.57;;;3.23;;
20621;SDS011;10470;42.670;23.354;2024-01-27T00:41:31;4.80;;;2.60;;
20621;SDS011;10470;42.670;23.354;2024-01-27T00:43:56;6.03;;;2.83;;
20621;SDS011;10470;42.670;23.354;2024-01-27T00:46:22;8.93;;;3.10;;
20621;SDS011;10470;42.670;23.354;2024-01-27T00:48:48;6.13;;;2.97;;
20621;SDS011;10470;42.670;23.354;2024-01-27T00:51:13;6.60;;;3.00;;
20621;SDS011;10470;42.670;23.354;2024-01-27T00:53:38;8.17;;;3.47;;
20621;SDS011;10470;42.670;23.354;2024-01-27T00:56:04;7.33;;;2.80;;
20621;SDS011;10470;42.670;23.354;2024-01-27T00:58:29;8.83;;;3.30;;
20621;SDS011;10470;42.670;23.354;2024-01-27T01:00:55;6.60;;;2.87;;
20621;SDS011;10470;42.670;23.354;2024-01-27T01:03:20;7.23;;;2.97;;
20621;SDS011;10470;42.670;23.354;2024-01-27T01:05:46;7.60;;;2.77;;
20621;SDS011;10470;42.670;23.354;2024-01-27T01:08:11;7.80;;;2.87;;
20621;SDS011;10470;42.670;23.354;2024-01-27T01:10:36;6.27;;;2.87;;
20621;SDS011;10470;42.670;23.354;2024-01-27T01:13:02;7.60;;;3.00;;
20621;SDS011;10470;42.670;23.354;2024-01-27T01:15:27;9.63;;;3.10;;
20621;SDS011;10470;42.670;23.354;2024-01-27T01:17:52;6.63;;;2.87;;
20621;SDS011;10470;42.670;23.354;2024-01-27T01:20:18;6.00;;;3.20;;
20621;SDS011;10470;42.670;23.354;2024-01-27T01:22:43;5.27;;;2.60;;
20621;SDS011;10470;42.670;23.354;2024-01-27T01:25:08;5.73;;;2.80;;
20621;SDS011;10470;42.670;23.354;2024-01-27T01:27:34;8.53;;;2.97;;
20621;SDS011;10470;42.670;23.354;2024-01-27T01:29:59;5.40;;;2.80;;
20621;SDS011;10470;42.670;23.354;2024-01-27T01:32:24;5.43;;;2.83;;
20621;SDS011;10470;42.670;23.354;2024-01-27T01:34:49;5.70;;;2.83;;
20621;SDS011;10470;42.670;23.354;2024-01-27T01:37:15;6.50;;;2.90;;
20621;SDS011;10470;42.670;23.354;2024-01-27T01:39:40;4.70;;;2.70;;
20621;SDS011;10470;42.670;23.354;2024-01-27T01:42:05;4.60;;;3.10;;
20621;SDS011;10470;42.670;23.354;2024-01-27T01:44:31;7.83;;;3.10;;
20621;SDS011;10470;42.670;23.354;2024-01-27T01:46:59;4.50;;;2.87;;
20621;SDS011;10470;42.670;23.354;2024-01-27T01:49:24;5.87;;;3.23;;
20621;SDS011;10470;42.670;23.354;2024-01-27T01:51:49;7.00;;;3.07;;
20621;SDS011;10470;42.670;23.354;2024-01-27T01:54:15;7.53;;;3.23;;
20621;SDS011;10470;42.670;23.354;2024-01-27T01:56:41;6.37;;;3.47;;
20621;SDS011;10470;42.670;23.354;2024-01-27T01:59:07;6.27;;;3.10;;
20621;SDS011;10470;42.670;23.354;2024-01-27T02:01:33;9.60;;;3.10;;
20621;SDS011;10470;42.670;23.354;2024-01-27T02:03:58;5.33;;;3.43;;
20621;SDS011;10470;42.670;23.354;2024-01-27T02:06:23;6.17;;;3.10;;
20621;SDS011;10470;42.670;23.354;2024-01-27T02:08:49;8.93;;;3.60;;
20621;SDS011;10470;42.670;23.354;2024-01-27T02:11:15;4.87;;;3.00;;
20621;SDS011;10470;42.670;23.354;2024-01-27T02:13:40;4.90;;;3.30;;
20621;SDS011;10470;42.670;23.354;2024-01-27T02:16:05;6.90;;;3.47;;
20621;SDS011;10470;42.670;23.354;2024-01-27T02:18:31;5.73;;;3.50;;
20621;SDS011;10470;42.670;23.354;2024-01-27T02:20:56;7.63;;;3.40;;
20621;SDS011;10470;42.670;23.354;2024-01-27T02:23:22;7.83;;;3.37;;
20621;SDS011;10470;42.670;23.354;2024-01-27T02:25:47;7.03;;;3.40;;
20621;SDS011;10470;42.670;23.354;2024-01-27T02:28:12;13.20;;;3.57;;
20621;SDS011;10470;42.670;23.354;2024-01-27T02:30:38;8.47;;;3.50;;
20621;SDS011;10470;42.670;23.354;2024-01-27T02:33:03;10.53;;;4.00;;
20621;SDS011;10470;42.670;23.354;2024-01-27T02:35:29;12.37;;;3.40;;
20621;SDS011;10470;42.670;23.354;2024-01-27T02:37:54;8.37;;;3.10;;
20621;SDS011;10470;42.670;23.354;2024-01-27T02:40:19;7.53;;;3.13;;
20621;SDS011;10470;42.670;23.354;2024-01-27T02:42:45;6.13;;;2.73;;
20621;SDS011;10470;42.670;23.354;2024-01-27T02:45:10;6.93;;;2.97;;
20621;SDS011;10470;42.670;23.354;2024-01-27T02:47:39;7.47;;;3.37;;
20621;SDS011;10470;42.670;23.354;2024-01-27T02:50:04;9.60;;;3.80;;
20621;SDS011;10470;42.670;23.354;2024-01-27T02:52:31;6.13;;;3.37;;
20621;SDS011;10470;42.670;23.354;2024-01-27T02:54:56;8.77;;;3.60;;
20621;SDS011;10470;42.670;23.354;2024-01-27T02:57:22;7.37;;;3.90;;
20621;SDS011;10470;42.670;23.354;2024-01-27T02:59:47;12.07;;;4.23;;
20621;SDS011;10470;42.670;23.354;2024-01-27T03:02:13;8.83;;;3.90;;
20621;SDS011;10470;42.670;23.354;2024-01-27T03:04:38;7.67;;;3.97;;
20621;SDS011;10470;42.670;23.354;2024-01-27T03:07:03;14.43;;;5.30;;
20621;SDS011;10470;42.670;23.354;2024-01-27T03:09:29;13.70;;;5.83;;
20621;SDS011;10470;42.670;23.354;2024-01-27T03:11:55;12.07;;;6.33;;
20621;SDS011;10470;42.670;23.354;2024-01-27T03:14:21;10.53;;;6.07;;
20621;SDS011;10470;42.670;23.354;2024-01-27T03:16:46;12.63;;;6.20;;
20621;SDS011;10470;42.670;23.354;2024-01-27T03:19:11;12.60;;;6.53;;
20621;SDS011;10470;42.670;23.354;2024-01-27T03:21:37;11.33;;;6.53;;
20621;SDS011;10470;42.670;23.354;2024-01-27T03:24:03;13.27;;;6.70;;
20621;SDS011;10470;42.670;23.354;2024-01-27T03:26:28;8.40;;;4.97;;
20621;SDS011;10470;42.670;23.354;2024-01-27T03:28:53;5.67;;;3.23;;
20621;SDS011;10470;42.670;23.354;2024-01-27T03:31:19;5.10;;;2.23;;
20621;SDS011;10470;42.670;23.354;2024-01-27T03:33:44;4.70;;;2.30;;
20621;SDS011;10470;42.670;23.354;2024-01-27T03:36:10;5.27;;;2.60;;
20621;SDS011;10470;42.670;23.354;2024-01-27T03:38:36;4.00;;;2.20;;
20621;SDS011;10470;42.670;23.354;2024-01-27T03:41:02;4.03;;;2.30;;
20621;SDS011;10470;42.670;23.354;2024-01-27T03:43:27;4.53;;;2.30;;
20621;SDS011;10470;42.670;23.354;2024-01-27T03:45:53;3.73;;;2.20;;
20621;SDS011;10470;42.670;23.354;2024-01-27T03:48:18;2.23;;;1.70;;
20621;SDS011;10470;42.670;23.354;2024-01-27T03:50:43;5.63;;;2.10;;
20621;SDS011;10470;42.670;23.354;2024-01-27T03:53:08;4.50;;;2.00;;
20621;SDS011;10470;42.670;23.354;2024-01-27T03:55:34;4.63;;;2.37;;
20621;SDS011;10470;42.670;23.354;2024-01-27T03:57:59;6.40;;;2.33;;
20621;SDS011;10470;42.670;23.354;2024-01-27T04:00:24;10.70;;;3.73;;
20621;SDS011;10470;42.670;23.354;2024-01-27T04:02:50;10.20;;;4.43;;
20621;SDS011;10470;42.670;23.354;2024-01-27T04:05:15;3.17;;;2.27;;
20621;SDS011;10470;42.670;23.354;2024-01-27T04:07:40;5.83;;;2.50;;
20621;SDS011;10470;42.670;23.354;2024-01-27T04:10:06;5.07;;;2.03;;
20621;SDS011;10470;42.670;23.354;2024-01-27T04:12:31;4.10;;;2.07;;
20621;SDS011;10470;42.670;23.354;2024-01-27T04:14:57;4.83;;;2.20;;
20621;SDS011;10470;42.670;23.354;2024-01-27T04:17:24;5.33;;;2.33;;
20621;SDS011;10470;42.670;23.354;2024-01-27T04:19:50;3.53;;;2.40;;
20621;SDS011;10470;42.670;23.354;2024-01-27T04:22:15;6.83;;;2.73;;
20621;SDS011;10470;42.670;23.354;2024-01-27T04:24:40;5.30;;;2.27;;
20621;SDS011;10470;42.670;23.354;2024-01-27T04:27:06;3.83;;;2.27;;
20621;SDS011;10470;42.670;23.354;2024-01-27T04:29:31;4.30;;;2.27;;
20621;SDS011;10470;42.670;23.354;2024-01-27T04:31:57;4.93;;;2.43;;
20621;SDS011;10470;42.670;23.354;2024-01-27T04:34:22;3.10;;;2.30;;
20621;SDS011;10470;42.670;23.354;2024-01-27T04:36:47;4.27;;;2.03;;
20621;SDS011;10470;42.670;23.354;2024-01-27T04:39:12;5.07;;;2.23;;
20621;SDS011;10470;42.670;23.354;2024-01-27T04:41:45;4.13;;;2.17;;
20621;SDS011;10470;42.670;23.354;2024-01-27T04:44:10;4.50;;;2.70;;
20621;SDS011;10470;42.670;23.354;2024-01-27T04:46:36;5.83;;;2.43;;
20621;SDS011;10470;42.670;23.354;2024-01-27T04:49:01;5.53;;;2.73;;
20621;SDS011;10470;42.670;23.354;2024-01-27T04:51:26;5.03;;;2.30;;
20621;SDS011;10470;42.670;23.354;2024-01-27T04:53:51;4.97;;;2.53;;
20621;SDS011;10470;42.670;23.354;2024-01-27T04:56:17;4.47;;;2.53;;
20621;SDS011;10470;42.670;23.354;2024-01-27T04:58:42;4.63;;;2.70;;
20621;SDS011;10470;42.670;23.354;2024-01-27T05:01:07;4.77;;;2.63;;
20621;SDS011;10470;42.670;23.354;2024-01-27T05:03:33;5.03;;;3.10;;
20621;SDS011;10470;42.670;23.354;2024-01-27T05:05:58;6.07;;;2.93;;
20621;SDS011;10470;42.670;23.354;2024-01-27T05:08:24;4.80;;;2.97;;
20621;SDS011;10470;42.670;23.354;2024-01-27T05:10:49;4.83;;;2.83;;
20621;SDS011;10470;42.670;23.354;2024-01-27T05:13:14;8.23;;;2.87;;
20621;SDS011;10470;42.670;23.354;2024-01-27T05:15:39;4.43;;;3.40;;
20621;SDS011;10470;42.670;23.354;2024-01-27T05:18:05;6.47;;;3.17;;
20621;SDS011;10470;42.670;23.354;2024-01-27T05:20:30;5.53;;;3.10;;
20621;SDS011;10470;42.670;23.354;2024-01-27T05:22:55;4.50;;;2.80;;
20621;SDS011;10470;42.670;23.354;2024-01-27T05:25:21;7.17;;;3.07;;
20621;SDS011;10470;42.670;23.354;2024-01-27T05:27:46;5.27;;;3.10;;
20621;SDS011;10470;42.670;23.354;2024-01-27T05:30:11;5.00;;;2.93;;
20621;SDS011;10470;42.670;23.354;2024-01-27T05:32:36;4.67;;;2.97;;
20621;SDS011;10470;42.670;23.354;2024-01-27T05:35:02;6.73;;;3.00;;
20621;SDS011;10470;42.670;23.354;2024-01-27T05:37:30;6.67;;;3.20;;
20621;SDS011;10470;42.670;23.354;2024-01-27T05:39:55;3.63;;;2.50;;
20621;SDS011;10470;42.670;23.354;2024-01-27T05:42:21;4.73;;;2.67;;
20621;SDS011;10470;42.670;23.354;2024-01-27T05:44:46;4.37;;;2.97;;
20621;SDS011;10470;42.670;23.354;2024-01-27T05:47:12;3.70;;;2.63;;
20621;SDS011;10470;42.670;23.354;2024-01-27T05:52:21;6.37;;;3.00;;
20621;SDS011;10470;42.670;23.354;2024-01-27T05:54:47;5.47;;;2.80;;
20621;SDS011;10470;42.670;23.354;2024-01-27T05:57:12;4.50;;;2.67;;
20621;SDS011;10470;42.670;23.354;2024-01-27T05:59:37;4.07;;;2.80;;
20621;SDS011;10470;42.670;23.354;2024-01-27T06:02:03;5.00;;;3.20;;
20621;SDS011;10470;42.670;23.354;2024-01-27T06:04:28;7.27;;;3.77;;
20621;SDS011;10470;42.670;23.354;2024-01-27T06:06:54;6.27;;;3.70;;
20621;SDS011;10470;42.670;23.354;2024-01-27T06:09:19;7.47;;;4.10;;
20621;SDS011;10470;42.670;23.354;2024-01-27T06:11:45;10.00;;;4.10;;
20621;SDS011;10470;42.670;23.354;2024-01-27T06:14:10;8.27;;;5.43;;
20621;SDS011;10470;42.670;23.354;2024-01-27T06:16:35;7.90;;;5.07;;
20621;SDS011;10470;42.670;23.354;2024-01-27T06:19:01;20.50;;;7.60;;
20621;SDS011;10470;42.670;23.354;2024-01-27T06:21:26;11.70;;;6.50;;
20621;SDS011;10470;42.670;23.354;2024-01-27T06:23:52;14.27;;;6.67;;
20621;SDS011;10470;42.670;23.354;2024-01-27T06:26:17;11.10;;;6.37;;
20621;SDS011;10470;42.670;23.354;2024-01-27T06:28:43;12.33;;;6.80;;
20621;SDS011;10470;42.670;23.354;2024-01-27T06:31:08;42.27;;;19.07;;
20621;SDS011;10470;42.670;23.354;2024-01-27T06:33:37;21.63;;;10.80;;
20621;SDS011;10470;42.670;23.354;2024-01-27T06:36:02;49.83;;;22.30;;
20621;SDS011;10470;42.670;23.354;2024-01-27T06:38:27;23.10;;;11.47;;
20621;SDS011;10470;42.670;23.354;2024-01-27T06:40:53;18.10;;;8.97;;
20621;SDS011;10470;42.670;23.354;2024-01-27T06:43:18;10.43;;;6.33;;
20621;SDS011;10470;42.670;23.354;2024-01-27T06:45:43;10.97;;;4.67;;
20621;SDS011;10470;42.670;23.354;2024-01-27T06:48:09;6.90;;;3.20;;
20621;SDS011;10470;42.670;23.354;2024-01-27T06:50:34;3.33;;;1.97;;
20621;SDS011;10470;42.670;23.354;2024-01-27T06:53:00;2.87;;;2.20;;
20621;SDS011;10470;42.670;23.354;2024-01-27T06:55:26;2.10;;;1.90;;
20621;SDS011;10470;42.670;23.354;2024-01-27T06:57:51;1.70;;;1.60;;
20621;SDS011;10470;42.670;23.354;2024-01-27T07:00:16;3.83;;;1.63;;
20621;SDS011;10470;42.670;23.354;2024-01-27T07:02:43;1.47;;;1.23;;
20621;SDS011;10470;42.670;23.354;2024-01-27T07:05:08;1.47;;;1.33;;
20621;SDS011;10470;42.670;23.354;2024-01-27T07:07:34;2.63;;;1.67;;
20621;SDS011;10470;42.670;23.354;2024-01-27T07:09:59;1.60;;;1.50;;
20621;SDS011;10470;42.670;23.354;2024-01-27T07:12:25;2.33;;;1.43;;
20621;SDS011;10470;42.670;23.354;2024-01-27T07:14:50;2.20;;;1.50;;
20621;SDS011;10470;42.670;23.354;2024-01-27T07:17:22;2.13;;;1.40;;
20621;SDS011;10470;42.670;23.354;2024-01-27T07:19:47;2.03;;;1.40;;
20621;SDS011;10470;42.670;23.354;2024-01-27T07:22:12;1.53;;;1.43;;
20621;SDS011;10470;42.670;23.354;2024-01-27T07:24:38;1.00;;;1.00;;
20621;SDS011;10470;42.670;23.354;2024-01-27T07:27:03;1.97;;;1.70;;
20621;SDS011;10470;42.670;23.354;2024-01-27T07:29:29;1.70;;;1.60;;
20621;SDS011;10470;42.670;23.354;2024-01-27T07:31:54;1.20;;;1.10;;
20621;SDS011;10470;42.670;23.354;2024-01-27T07:34:20;1.80;;;1.70;;
20621;SDS011;10470;42.670;23.354;2024-01-27T07:36:45;2.30;;;1.40;;
20621;SDS011;10470;42.670;23.354;2024-01-27T07:39:10;2.07;;;1.83;;
20621;SDS011;10470;42.670;23.354;2024-01-27T07:41:36;3.23;;;1.87;;
20621;SDS011;10470;42.670;23.354;2024-01-27T07:44:10;2.83;;;2.40;;
20621;SDS011;10470;42.670;23.354;2024-01-27T07:46:39;2.90;;;1.97;;
20621;SDS011;10470;42.670;23.354;2024-01-27T07:49:08;2.73;;;1.90;;
20621;SDS011;10470;42.670;23.354;2024-01-27T07:51:33;4.73;;;2.30;;
20621;SDS011;10470;42.670;23.354;2024-01-27T07:53:59;2.87;;;1.63;;
20621;SDS011;10470;42.670;23.354;2024-01-27T07:56:25;3.43;;;2.60;;
20621;SDS011;10470;42.670;23.354;2024-01-27T07:58:50;4.43;;;2.70;;
20621;SDS011;10470;42.670;23.354;2024-01-27T08:01:15;2.57;;;2.27;;
20621;SDS011;10470;42.670;23.354;2024-01-27T08:03:41;3.10;;;2.33;;
20621;SDS011;10470;42.670;23.354;2024-01-27T08:06:07;3.83;;;2.53;;
20621;SDS011;10470;42.670;23.354;2024-01-27T08:08:35;4.20;;;2.40;;
20621;SDS011;10470;42.670;23.354;2024-01-27T08:11:00;7.70;;;4.30;;
20621;SDS011;10470;42.670;23.354;2024-01-27T08:13:25;3.77;;;2.97;;
20621;SDS011;10470;42.670;23.354;2024-01-27T08:15:51;3.73;;;2.40;;
20621;SDS011;10470;42.670;23.354;2024-01-27T08:18:16;3.53;;;3.23;;
20621;SDS011;10470;42.670;23.354;2024-01-27T08:20:41;3.93;;;3.50;;
20621;SDS011;10470;42.670;23.354;2024-01-27T08:23:07;4.47;;;3.37;;
20621;SDS011;10470;42.670;23.354;2024-01-27T08:25:34;5.63;;;4.00;;
20621;SDS011;10470;42.670;23.354;2024-01-27T08:27:59;4.70;;;3.53;;
20621;SDS011;10470;42.670;23.354;2024-01-27T08:30:25;5.30;;;3.53;;
20621;SDS011;10470;42.670;23.354;2024-01-27T08:32:50;3.30;;;3.00;;
20621;SDS011;10470;42.670;23.354;2024-01-27T08:35:15;4.37;;;3.30;;
20621;SDS011;10470;42.670;23.354;2024-01-27T08:37:40;3.80;;;2.63;;
20621;SDS011;10470;42.670;23.354;2024-01-27T08:40:06;4.13;;;2.87;;
20621;SDS011;10470;42.670;23.354;2024-01-27T08:42:31;5.17;;;2.83;;
20621;SDS011;10470;42.670;23.354;2024-01-27T08:44:57;7.07;;;2.80;;
20621;SDS011;10470;42.670;23.354;2024-01-27T08:47:22;2.83;;;2.60;;
20621;SDS011;10470;42.670;23.354;2024-01-27T08:49:47;2.67;;;2.47;;
20621;SDS011;10470;42.670;23.354;2024-01-27T08:52:13;2.90;;;2.60;;
20621;SDS011;10470;42.670;23.354;2024-01-27T08:54:38;2.63;;;2.40;;
20621;SDS011;10470;42.670;23.354;2024-01-27T08:57:03;2.70;;;2.50;;
20621;SDS011;10470;42.670;23.354;2024-01-27T08:59:29;2.03;;;1.87;;
20621;SDS011;10470;42.670;23.354;2024-01-27T09:01:54;4.10;;;2.13;;
20621;SDS011;10470;42.670;23.354;2024-01-27T09:04:19;4.20;;;3.33;;
20621;SDS011;10470;42.670;23.354;2024-01-27T09:06:45;3.07;;;2.63;;
20621;SDS011;10470;42.670;23.354;2024-01-27T09:09:10;3.10;;;2.60;;
20621;SDS011;10470;42.670;23.354;2024-01-27T09:11:37;2.23;;;1.90;;
20621;SDS011;10470;42.670;23.354;2024-01-27T09:14:02;2.67;;;2.30;;
20621;SDS011;10470;42.670;23.354;2024-01-27T09:16:30;2.10;;;1.90;;
20621;SDS011;10470;42.670;23.354;2024-01-27T09:18:55;2.80;;;2.50;;
20621;SDS011;10470;42.670;23.354;2024-01-27T09:21:20;3.63;;;2.43;;
20621;SDS011;10470;42.670;23.354;2024-01-27T09:23:52;4.70;;;2.57;;
20621;SDS011;10470;42.670;23.354;2024-01-27T09:26:18;2.87;;;2.30;;
20621;SDS011;10470;42.670;23.354;2024-01-27T09:28:43;3.17;;;2.20;;
20621;SDS011;10470;42.670;23.354;2024-01-27T09:31:10;2.70;;;2.50;;
20621;SDS011;10470;42.670;23.354;2024-01-27T09:33:35;1.80;;;1.70;;
20621;SDS011;10470;42.670;23.354;2024-01-27T09:36:01;4.07;;;1.80;;
20621;SDS011;10470;42.670;23.354;2024-01-27T09:38:26;2.83;;;2.00;;
20621;SDS011;10470;42.670;23.354;2024-01-27T09:40:51;2.90;;;2.10;;
20621;SDS011;10470;42.670;23.354;2024-01-27T09:43:17;2.77;;;2.53;;
20621;SDS011;10470;42.670;23.354;2024-01-27T09:45:43;2.87;;;2.43;;
20621;SDS011;10470;42.670;23.354;2024-01-27T09:48:10;4.03;;;2.40;;
20621;SDS011;10470;42.670;23.354;2024-01-27T09:50:36;2.60;;;2.40;;
20621;SDS011;10470;42.670;23.354;2024-01-27T09:53:01;2.80;;;2.00;;
20621;SDS011;10470;42.670;23.354;2024-01-27T09:55:27;2.60;;;2.40;;
20621;SDS011;10470;42.670;23.354;2024-01-27T09:57:52;3.00;;;2.47;;
20621;SDS011;10470;42.670;23.354;2024-01-27T10:00:18;4.07;;;2.50;;
20621;SDS011;10470;42.670;23.354;2024-01-27T10:02:44;3.07;;;2.57;;
20621;SDS011;10470;42.670;23.354;2024-01-27T10:05:10;2.40;;;2.20;;
20621;SDS011;10470;42.670;23.354;2024-01-27T10:07:36;3.90;;;2.00;;
20621;SDS011;10470;42.670;23.354;2024-01-27T10:10:01;3.17;;;2.00;;
20621;SDS011;10470;42.670;23.354;2024-01-27T10:12:28;1.90;;;1.80;;
20621;SDS011;10470;42.670;23.354;2024-01-27T10:14:53;2.87;;;2.20;;
20621;SDS011;10470;42.670;23.354;2024-01-27T10:17:22;1.60;;;1.50;;
20621;SDS011;10470;42.670;23.354;2024-01-27T10:20:04;2.73;;;2.40;;
20621;SDS011;10470;42.670;23.354;2024-01-27T10:22:42;2.10;;;2.00;;
20621;SDS011;10470;42.670;23.354;2024-01-27T10:25:08;3.57;;;2.57;;
20621;SDS011;10470;42.670;23.354;2024-01-27T10:27:34;2.50;;;1.67;;
20621;SDS011;10470;42.670;23.354;2024-01-27T10:30:00;2.67;;;2.00;;
20621;SDS011;10470;42.670;23.354;2024-01-27T10:32:25;2.87;;;2.37;;
20621;SDS011;10470;42.670;23.354;2024-01-27T10:35:06;4.13;;;2.47;;
20621;SDS011;10470;42.670;23.354;2024-01-27T10:37:35;2.90;;;2.27;;
20621;SDS011;10470;42.670;23.354;2024-01-27T10:40:04;2.30;;;2.10;;
20621;SDS011;10470;42.670;23.354;2024-01-27T10:42:32;3.77;;;2.10;;
20621;SDS011;10470;42.670;23.354;2024-01-27T10:44:58;1.87;;;1.77;;
20621;SDS011;10470;42.670;23.354;2024-01-27T10:47:28;2.60;;;2.27;;
20621;SDS011;10470;42.670;23.354;2024-01-27T10:49:58;6.97;;;2.90;;
20621;SDS011;10470;42.670;23.354;2024-01-27T10:52:25;3.17;;;2.13;;
20621;SDS011;10470;42.670;23.354;2024-01-27T10:55:00;3.07;;;2.17;;
20621;SDS011;10470;42.670;23.354;2024-01-27T10:57:26;5.43;;;2.73;;
20621;SDS011;10470;42.670;23.354;2024-01-27T10:59:52;3.80;;;2.63;;
20621;SDS011;10470;42.670;23.354;2024-01-27T11:02:18;5.47;;;2.90;;
20621;SDS011;10470;42.670;23.354;2024-01-27T11:04:43;3.63;;;2.70;;
20621;SDS011;10470;42.670;23.354;2024-01-27T11:07:09;6.53;;;4.23;;
20621;SDS011;10470;42.670;23.354;2024-01-27T11:09:35;7.63;;;5.23;;
20621;SDS011;10470;42.670;23.354;2024-01-27T11:12:01;4.10;;;3.70;;
20621;SDS011;10470;42.670;23.354;2024-01-27T11:14:27;5.33;;;4.57;;
20621;SDS011;10470;42.670;23.354;2024-01-27T11:16:56;4.83;;;2.70;;
20621;SDS011;10470;42.670;23.354;2024-01-27T11:19:21;3.73;;;2.37;;
20621;SDS011;10470;42.670;23.354;2024-01-27T11:21:47;4.30;;;3.13;;
20621;SDS011;10470;42.670;23.354;2024-01-27T11:24:16;3.30;;;3.00;;
20621;SDS011;10470;42.670;23.354;2024-01-27T11:26:42;3.80;;;3.40;;
20621;SDS011;10470;42.670;23.354;2024-01-27T11:29:07;3.03;;;2.73;;
20621;SDS011;10470;42.670;23.354;2024-01-27T11:31:35;6.53;;;5.10;;
20621;SDS011;10470;42.670;23.354;2024-01-27T11:34:00;3.47;;;3.17;;
20621;SDS011;10470;42.670;23.354;2024-01-27T11:36:26;3.57;;;3.03;;
20621;SDS011;10470;42.670;23.354;2024-01-27T11:38:52;2.40;;;2.30;;
20621;SDS011;10470;42.670;23.354;2024-01-27T11:41:24;3.20;;;2.50;;
20621;SDS011;10470;42.670;23.354;2024-01-27T11:43:54;2.40;;;2.20;;
20621;SDS011;10470;42.670;23.354;2024-01-27T11:46:19;9.10;;;3.87;;
20621;SDS011;10470;42.670;23.354;2024-01-27T11:48:45;3.17;;;2.87;;
20621;SDS011;10470;42.670;23.354;2024-01-27T11:51:11;5.77;;;3.70;;
20621;SDS011;10470;42.670;23.354;2024-01-27T11:53:36;3.60;;;3.27;;
20621;SDS011;10470;42.670;23.354;2024-01-27T11:56:02;4.00;;;3.60;;
20621;SDS011;10470;42.670;23.354;2024-01-27T11:58:28;5.83;;;3.80;;
20621;SDS011;10470;42.670;23.354;2024-01-27T12:00:55;3.40;;;3.10;;
20621;SDS011;10470;42.670;23.354;2024-01-27T12:03:20;4.43;;;3.00;;
20621;SDS011;10470;42.670;23.354;2024-01-27T12:05:45;4.00;;;3.60;;
20621;SDS011;10470;42.670;23.354;2024-01-27T12:08:11;4.03;;;3.23;;
20621;SDS011;10470;42.670;23.354;2024-01-27T12:10:36;4.27;;;3.00;;
20621;SDS011;10470;42.670;23.354;2024-01-27T12:13:02;2.70;;;2.50;;
20621;SDS011;10470;42.670;23.354;2024-01-27T12:15:27;3.97;;;3.37;;
20621;SDS011;10470;42.670;23.354;2024-01-27T12:17:53;2.73;;;2.53;;
20621;SDS011;10470;42.670;23.354;2024-01-27T12:20:18;4.07;;;3.20;;
20621;SDS011;10470;42.670;23.354;2024-01-27T12:22:44;4.00;;;3.00;;
20621;SDS011;10470;42.670;23.354;2024-01-27T12:25:11;3.93;;;3.57;;
20621;SDS011;10470;42.670;23.354;2024-01-27T12:27:39;3.77;;;2.00;;
20621;SDS011;10470;42.670;23.354;2024-01-27T12:30:05;3.20;;;2.90;;
20621;SDS011;10470;42.670;23.354;2024-01-27T12:32:30;3.40;;;3.10;;
20621;SDS011;10470;42.670;23.354;2024-01-27T12:34:56;5.00;;;3.10;;
20621;SDS011;10470;42.670;23.354;2024-01-27T12:37:23;3.53;;;2.50;;
20621;SDS011;10470;42.670;23.354;2024-01-27T12:39:49;4.47;;;2.37;;
20621;SDS011;10470;42.670;23.354;2024-01-27T12:42:17;3.17;;;2.67;;
20621;SDS011;10470;42.670;23.354;2024-01-27T12:44:42;2.83;;;2.63;;
20621;SDS011;10470;42.670;23.354;2024-01-27T12:47:11;6.63;;;3.10;;
20621;SDS011;10470;42.670;23.354;2024-01-27T12:49:36;4.33;;;3.40;;
20621;SDS011;10470;42.670;23.354;2024-01-27T12:52:02;2.87;;;2.67;;
20621;SDS011;10470;42.670;23.354;2024-01-27T12:54:27;2.60;;;2.40;;
20621;SDS011;10470;42.670;23.354;2024-01-27T12:56:53;4.13;;;2.43;;
20621;SDS011;10470;42.670;23.354;2024-01-27T12:59:18;2.23;;;2.03;;
20621;SDS011;10470;42.670;23.354;2024-01-27T13:01:43;2.90;;;2.60;;
20621;SDS011;10470;42.670;23.354;2024-01-27T13:04:09;5.93;;;3.80;;
20621;SDS011;10470;42.670;23.354;2024-01-27T13:06:34;2.50;;;2.30;;
20621;SDS011;10470;42.670;23.354;2024-01-27T13:08:59;3.27;;;2.70;;
20621;SDS011;10470;42.670;23.354;2024-01-27T13:11:24;3.73;;;1.90;;
20621;SDS011;10470;42.670;23.354;2024-01-27T13:13:50;2.33;;;1.90;;
20621;SDS011;10470;42.670;23.354;2024-01-27T13:16:15;4.60;;;2.10;;
20621;SDS011;10470;42.670;23.354;2024-01-27T13:18:41;2.87;;;1.90;;
20621;SDS011;10470;42.670;23.354;2024-01-27T13:21:09;2.10;;;1.97;;
20621;SDS011;10470;42.670;23.354;2024-01-27T13:23:41;3.07;;;2.20;;
20621;SDS011;10470;42.670;23.354;2024-01-27T13:26:06;2.53;;;2.23;;
20621;SDS011;10470;42.670;23.354;2024-01-27T13:28:31;3.07;;;2.00;;
20621;SDS011;10470;42.670;23.354;2024-01-27T13:30:57;3.17;;;1.90;;
20621;SDS011;10470;42.670;23.354;2024-01-27T13:33:22;2.90;;;1.90;;
20621;SDS011;10470;42.670;23.354;2024-01-27T13:35:48;2.60;;;2.33;;
20621;SDS011;10470;42.670;23.354;2024-01-27T13:38:13;3.30;;;2.00;;
20621;SDS011;10470;42.670;23.354;2024-01-27T13:40:38;1.40;;;1.30;;
20621;SDS011;10470;42.670;23.354;2024-01-27T13:43:04;2.77;;;2.07;;
20621;SDS011;10470;42.670;23.354;2024-01-27T13:45:30;4.13;;;1.90;;
20621;SDS011;10470;42.670;23.354;2024-01-27T13:47:55;1.97;;;1.77;;
20621;SDS011;10470;42.670;23.354;2024-01-27T13:50:21;3.07;;;1.73;;
20621;SDS011;10470;42.670;23.354;2024-01-27T13:52:46;2.17;;;1.80;;
20621;SDS011;10470;42.670;23.354;2024-01-27T13:55:12;5.87;;;2.13;;
20621;SDS011;10470;42.670;23.354;2024-01-27T13:57:38;3.00;;;2.00;;
20621;SDS011;10470;42.670;23.354;2024-01-27T14:00:03;2.00;;;1.83;;
20621;SDS011;10470;42.670;23.354;2024-01-27T14:02:29;1.53;;;1.43;;
20621;SDS011;10470;42.670;23.354;2024-01-27T14:04:55;4.13;;;2.20;;
20621;SDS011;10470;42.670;23.354;2024-01-27T14:07:21;2.40;;;2.20;;
20621;SDS011;10470;42.670;23.354;2024-01-27T14:09:47;3.27;;;1.90;;
20621;SDS011;10470;42.670;23.354;2024-01-27T14:12:13;7.87;;;2.80;;
20621;SDS011;10470;42.670;23.354;2024-01-27T14:14:38;4.57;;;2.20;;
20621;SDS011;10470;42.670;23.354;2024-01-27T14:17:06;6.90;;;2.43;;
20621;SDS011;10470;42.670;23.354;2024-01-27T14:19:32;3.73;;;2.00;;
20621;SDS011;10470;42.670;23.354;2024-01-27T14:21:57;3.40;;;2.10;;
20621;SDS011;10470;42.670;23.354;2024-01-27T14:24:23;4.03;;;2.07;;
20621;SDS011;10470;42.670;23.354;2024-01-27T14:26:48;2.27;;;2.07;;